Sao Joao do Araguaia, Brazil
Current Conditions -  °F | °C
As of 1:00 AM on Friday 28 Nov 2014 (Local Time) from SBMA Reporting Station
Few Clouds Few Clouds  
Wind Chill: 75°   Ceiling: Unl
Heat Index: 75°   Visibility: 6mi
Dew Point: 75°   Wind: 2mph
Humidity: 100%   Direction: 270°W
Pressure: 29.85"   Gusts: NA
Location:  5.38°S, 48.77°W
Report Text: SBMA 280400Z 27002KT 9999 FEW012 24/24 Q1011
Loading
Personal Weather Stations






























Interactive Weather Map New forecast layout! Learn more

10-Day Weather Forecast

Advertisements
Track Severe Weather on mobile